Time;durP1;ratioP1;P1;durP2;ratioP2;P2;SDS_P1;SDS_P2;PMS_P1;PMS_P2;Temp;Humidity;BMP_temperature;BMP_pressure;BME280_temperature;BME280_humidity;BME280_pressure;Samples;Min_cycle;Max_cycle;Signal;HPM_P1;HPM_P2
2021/04/12 00:01:56;;;;;;;6.20;3.50;;;;;;;;;;5028684;28;20196;-81
2021/04/12 00:04:27;;;;;;;6.40;3.80;;;;;;;;;;5027527;28;20208;-81
2021/04/12 00:06:56;;;;;;;10.17;3.60;;;;;;;;;;5024632;28;20208;-82
2021/04/12 00:09:26;;;;;;;7.70;3.77;;;;;;;;;;5028710;28;20209;-82
2021/04/12 00:11:56;;;;;;;9.27;3.57;;;;;;;;;;5028328;28;20207;-82
2021/04/12 00:14:25;;;;;;;8.07;3.67;;;;;;;;;;5027044;28;20219;-81
2021/04/12 00:16:54;;;;;;;7.33;3.47;;;;;;;;;;5027490;28;20251;-81
2021/04/12 00:19:23;;;;;;;7.33;3.70;;;;;;;;;;5027850;28;20306;-81
2021/04/12 00:21:51;;;;;;;8.73;3.57;;;;;;;;;;5028110;28;20211;-82
2021/04/12 00:24:21;;;;;;;7.20;3.80;;;;;;;;;;5025592;28;20205;-82
2021/04/12 00:26:51;;;;;;;8.03;3.57;;;;;;;;;;5027865;28;20215;-81
2021/04/12 00:29:21;;;;;;;8.43;3.70;;;;;;;;;;5043448;28;20208;-81
2021/04/12 00:31:50;;;;;;;7.13;3.37;;;;;;;;;;5048137;28;20200;-81
2021/04/12 00:34:20;;;;;;;7.63;3.53;;;;;;;;;;5048302;28;20207;-81
2021/04/12 00:36:49;;;;;;;7.47;3.20;;;;;;;;;;5035601;28;20309;-82
2021/04/12 00:39:19;;;;;;;7.40;4.20;;;;;;;;;;5030930;28;20243;-82
2021/04/12 00:42:00;;;;;;;7.37;4.03;;;;;;;;;;5028309;28;20208;-82
2021/04/12 00:44:31;;;;;;;7.60;4.17;;;;;;;;;;5028997;28;20207;-81
2021/04/12 00:47:01;;;;;;;9.33;4.07;;;;;;;;;;5029931;28;20214;-83
2021/04/12 00:49:36;;;;;;;8.83;4.57;;;;;;;;;;5026613;28;20204;-82
2021/04/12 00:52:11;;;;;;;12.43;4.13;;;;;;;;;;5028406;28;20235;-82
2021/04/12 00:54:44;;;;;;;6.50;3.90;;;;;;;;;;5028473;28;20767;-82
2021/04/12 00:59:43;;;;;;;9.10;4.30;;;;;;;;;;5034421;28;20238;-74
2021/04/12 01:02:14;;;;;;;7.23;4.23;;;;;;;;;;5037839;28;20223;-75
2021/04/12 01:04:46;;;;;;;7.60;4.23;;;;;;;;;;5029512;28;20310;-74
2021/04/12 01:07:33;;;;;;;8.23;4.30;;;;;;;;;;5019082;28;20274;-75
2021/04/12 01:10:18;;;;;;;10.37;4.40;;;;;;;;;;5017490;28;20257;-75
2021/04/12 01:13:00;;;;;;;7.37;4.40;;;;;;;;;;5017712;28;20207;-72
2021/04/12 01:15:51;;;;;;;8.60;4.70;;;;;;;;;;5016605;28;20357;-75
2021/04/12 01:18:29;;;;;;;9.13;4.67;;;;;;;;;;4966825;28;20206;-72
2021/04/12 01:21:03;;;;;;;11.73;4.50;;;;;;;;;;5017873;28;20232;-74
2021/04/12 01:23:47;;;;;;;8.00;4.37;;;;;;;;;;5016337;28;20236;-74
2021/04/12 01:26:31;;;;;;;9.53;4.83;;;;;;;;;;5017930;28;20200;-75
2021/04/12 01:29:13;;;;;;;7.77;4.40;;;;;;;;;;5018039;28;20291;-74
2021/04/12 01:32:03;;;;;;;7.13;4.17;;;;;;;;;;5017847;28;20207;-74
2021/04/12 01:34:45;;;;;;;7.53;4.30;;;;;;;;;;4965323;28;20754;-75
2021/04/12 01:37:24;;;;;;;10.00;4.37;;;;;;;;;;5016730;28;20344;-73
2021/04/12 01:39:56;;;;;;;10.83;4.43;;;;;;;;;;5016292;28;20282;-75
2021/04/12 01:42:31;;;;;;;11.00;4.40;;;;;;;;;;5016416;28;20338;-76
2021/04/12 01:45:04;;;;;;;7.13;4.40;;;;;;;;;;5017226;28;20311;-75
2021/04/12 01:47:41;;;;;;;8.73;4.80;;;;;;;;;;5017968;28;20287;-74
2021/04/12 01:50:15;;;;;;;9.27;4.50;;;;;;;;;;5016755;28;20692;-75
2021/04/12 01:52:49;;;;;;;7.40;4.60;;;;;;;;;;5016615;28;20195;-74
2021/04/12 01:55:31;;;;;;;9.93;4.27;;;;;;;;;;5017340;28;20875;-75
2021/04/12 01:58:18;;;;;;;10.93;4.47;;;;;;;;;;5016290;28;20345;-74
2021/04/12 02:00:53;;;;;;;7.43;4.53;;;;;;;;;;5018308;28;20242;-75
2021/04/12 02:03:35;;;;;;;7.77;4.30;;;;;;;;;;5018772;28;20853;-74
2021/04/12 02:06:25;;;;;;;9.70;4.57;;;;;;;;;;5021613;28;20622;-76
2021/04/12 02:08:55;;;;;;;9.60;4.30;;;;;;;;;;5020573;28;20295;-76
2021/04/12 02:11:37;;;;;;;8.13;4.93;;;;;;;;;;5020073;28;20409;-75
2021/04/12 02:14:13;;;;;;;8.33;4.53;;;;;;;;;;5019837;28;20263;-75
2021/04/12 02:16:44;;;;;;;7.97;4.90;;;;;;;;;;5021878;28;20235;-73
2021/04/12 02:19:23;;;;;;;10.10;4.43;;;;;;;;;;5020098;28;20311;-75
2021/04/12 02:21:59;;;;;;;14.07;5.10;;;;;;;;;;5021987;28;20208;-75
2021/04/12 02:24:31;;;;;;;8.50;4.33;;;;;;;;;;5020464;28;20311;-75
2021/04/12 02:27:10;;;;;;;6.50;4.03;;;;;;;;;;5019563;28;20247;-74
2021/04/12 02:29:55;;;;;;;9.63;4.40;;;;;;;;;;5021254;28;20286;-76
2021/04/12 02:32:39;;;;;;;7.53;3.70;;;;;;;;;;5022500;28;20208;-74
2021/04/12 02:35:14;;;;;;;7.63;4.00;;;;;;;;;;5010766;28;20408;-74
2021/04/12 02:37:50;;;;;;;10.70;4.70;;;;;;;;;;5021202;28;20259;-76
2021/04/12 02:40:25;;;;;;;7.33;4.40;;;;;;;;;;5022083;28;20223;-76
2021/04/12 02:43:02;;;;;;;8.03;3.87;;;;;;;;;;5019389;28;20291;-75
2021/04/12 02:45:33;;;;;;;6.60;3.57;;;;;;;;;;5019466;28;20705;-75
2021/04/12 02:48:14;;;;;;;7.70;3.83;;;;;;;;;;5022052;28;20835;-75
2021/04/12 02:50:50;;;;;;;12.30;4.50;;;;;;;;;;5020362;28;20302;-75
2021/04/12 02:53:50;;;;;;;5.93;3.53;;;;;;;;;;5021548;28;20961;-75
2021/04/12 02:56:27;;;;;;;9.87;3.87;;;;;;;;;;4979096;28;20248;-75
2021/04/12 02:59:05;;;;;;;7.23;3.90;;;;;;;;;;4979724;28;20244;-76
2021/04/12 03:01:43;;;;;;;10.53;4.63;;;;;;;;;;5004709;28;20261;-75
2021/04/12 03:04:23;;;;;;;12.80;5.13;;;;;;;;;;5019921;28;20230;-77
2021/04/12 03:07:13;;;;;;;12.23;5.23;;;;;;;;;;5019266;28;20342;-76
2021/04/12 03:09:55;;;;;;;14.33;4.90;;;;;;;;;;5021005;28;20675;-75
2021/04/12 03:12:34;;;;;;;8.67;4.83;;;;;;;;;;5019486;28;20200;-75
2021/04/12 03:15:10;;;;;;;8.57;4.70;;;;;;;;;;5019453;28;20270;-72
2021/04/12 03:17:48;;;;;;;11.47;5.17;;;;;;;;;;5022549;28;20307;-75
2021/04/12 03:20:32;;;;;;;7.63;4.47;;;;;;;;;;5019751;28;20294;-75
2021/04/12 03:23:04;;;;;;;16.57;5.43;;;;;;;;;;5021109;28;21320;-75
2021/04/12 03:25:38;;;;;;;14.10;5.83;;;;;;;;;;5019594;28;20318;-75
2021/04/12 03:28:21;;;;;;;10.60;6.10;;;;;;;;;;5019186;28;20290;-75
2021/04/12 03:30:55;;;;;;;11.13;5.90;;;;;;;;;;5020109;28;20681;-75
2021/04/12 03:33:31;;;;;;;13.30;6.07;;;;;;;;;;5020380;28;20662;-74
2021/04/12 03:36:08;;;;;;;15.80;7.57;;;;;;;;;;5020553;28;20875;-76
2021/04/12 03:38:42;;;;;;;14.43;6.57;;;;;;;;;;5019663;28;20342;-74
2021/04/12 03:41:32;;;;;;;14.67;7.23;;;;;;;;;;5021236;28;20674;-76
2021/04/12 03:44:15;;;;;;;15.00;6.83;;;;;;;;;;5006010;28;20234;-76
2021/04/12 03:46:52;;;;;;;13.47;6.87;;;;;;;;;;5018605;28;20196;-76
2021/04/12 03:49:38;;;;;;;11.83;7.50;;;;;;;;;;5019033;28;20298;-74
2021/04/12 03:52:22;;;;;;;13.13;7.03;;;;;;;;;;5018150;28;20295;-75
2021/04/12 03:54:52;;;;;;;13.60;7.77;;;;;;;;;;4989165;28;20685;-74
2021/04/12 03:57:38;;;;;;;12.73;7.27;;;;;;;;;;5017333;28;20363;-76
2021/04/12 04:00:14;;;;;;;15.03;7.37;;;;;;;;;;5019238;28;20694;-74
2021/04/12 04:02:44;;;;;;;12.80;7.80;;;;;;;;;;5018260;28;20303;-75
2021/04/12 04:05:20;;;;;;;13.17;7.10;;;;;;;;;;5019296;28;20302;-73
2021/04/12 04:08:14;;;;;;;16.77;7.67;;;;;;;;;;5017682;28;20286;-74
2021/04/12 04:11:01;;;;;;;14.97;8.13;;;;;;;;;;5023500;28;20282;-75
2021/04/12 04:13:34;;;;;;;16.13;7.37;;;;;;;;;;5018440;28;20231;-75
2021/04/12 04:16:22;;;;;;;18.23;8.33;;;;;;;;;;5024278;28;20533;-75
2021/04/12 04:18:54;;;;;;;14.53;7.33;;;;;;;;;;5017477;28;20207;-75
2021/04/12 04:21:29;;;;;;;15.40;7.73;;;;;;;;;;5019390;28;20207;-76
2021/04/12 04:24:02;;;;;;;17.57;7.87;;;;;;;;;;5019087;28;20229;-75
2021/04/12 04:26:52;;;;;;;16.27;8.53;;;;;;;;;;5020422;28;20616;-73
2021/04/12 04:29:34;;;;;;;22.03;8.53;;;;;;;;;;4964248;28;20232;-76
2021/04/12 04:32:18;;;;;;;17.37;7.73;;;;;;;;;;5019698;28;20319;-74
2021/04/12 04:35:03;;;;;;;18.60;8.80;;;;;;;;;;5021215;28;20310;-74
2021/04/12 04:37:42;;;;;;;15.70;8.33;;;;;;;;;;5020432;28;20482;-75
2021/04/12 04:40:30;;;;;;;19.63;8.57;;;;;;;;;;5018768;28;21075;-75
2021/04/12 04:43:12;;;;;;;14.97;8.00;;;;;;;;;;5015079;28;20463;-75
2021/04/12 04:45:52;;;;;;;13.90;7.43;;;;;;;;;;5019570;28;20857;-76
2021/04/12 04:48:33;;;;;;;15.40;7.67;;;;;;;;;;5019284;28;20283;-76
2021/04/12 04:51:24;;;;;;;13.90;7.77;;;;;;;;;;5018433;28;20287;-75
2021/04/12 04:54:08;;;;;;;15.77;7.37;;;;;;;;;;5015858;28;20585;-75
2021/04/12 04:56:38;;;;;;;15.90;7.10;;;;;;;;;;5001181;28;20227;-74
2021/04/12 04:59:23;;;;;;;13.40;6.80;;;;;;;;;;5016700;28;20236;-75
2021/04/12 05:02:08;;;;;;;15.30;6.90;;;;;;;;;;5019641;28;20564;-76
2021/04/12 05:05:05;;;;;;;11.07;6.57;;;;;;;;;;5018516;28;20273;-74
2021/04/12 05:07:49;;;;;;;16.47;6.73;;;;;;;;;;4956071;28;20707;-72
2021/04/12 05:10:34;;;;;;;10.30;5.73;;;;;;;;;;5007271;28;20537;-74
2021/04/12 05:13:11;;;;;;;10.47;5.00;;;;;;;;;;5021585;28;20687;-75
2021/04/12 05:16:02;;;;;;;13.47;6.23;;;;;;;;;;5021577;28;20332;-76
2021/04/12 05:18:47;;;;;;;10.87;5.57;;;;;;;;;;5018896;28;20200;-77
2021/04/12 05:21:37;;;;;;;14.00;5.93;;;;;;;;;;5022034;28;20405;-75
2021/04/12 05:24:09;;;;;;;13.13;6.53;;;;;;;;;;5017904;28;20223;-77
2021/04/12 05:26:55;;;;;;;13.90;6.23;;;;;;;;;;5020674;28;21996;-73
2021/04/12 05:29:42;;;;;;;16.60;6.70;;;;;;;;;;5018186;28;21741;-76
2021/04/12 05:32:17;;;;;;;28.23;11.97;;;;;;;;;;5016018;28;20298;-74
2021/04/12 05:34:55;;;;;;;16.60;6.47;;;;;;;;;;5017542;28;20310;-75
2021/04/12 05:37:27;;;;;;;16.43;6.80;;;;;;;;;;5019623;28;20636;-75
2021/04/12 05:40:11;;;;;;;12.03;5.50;;;;;;;;;;5022882;28;20214;-75
2021/04/12 05:42:53;;;;;;;12.00;5.53;;;;;;;;;;5021954;28;20298;-72
2021/04/12 05:45:47;;;;;;;13.97;6.00;;;;;;;;;;5026259;28;20317;-76
2021/04/12 05:48:29;;;;;;;11.73;5.47;;;;;;;;;;5023312;28;20290;-75
2021/04/12 05:51:13;;;;;;;10.23;5.07;;;;;;;;;;5025637;28;20675;-74
2021/04/12 05:53:44;;;;;;;10.60;5.87;;;;;;;;;;5016290;28;20227;-75
2021/04/12 05:56:22;;;;;;;14.73;6.33;;;;;;;;;;5020202;28;20283;-73
2021/04/12 05:59:19;;;;;;;10.20;5.70;;;;;;;;;;5019360;28;20206;-74
2021/04/12 06:01:54;;;;;;;12.70;6.53;;;;;;;;;;4977640;28;20205;-74
2021/04/12 06:04:28;;;;;;;10.83;5.93;;;;;;;;;;5013920;28;20281;-75
2021/04/12 06:07:03;;;;;;;11.47;6.30;;;;;;;;;;5021659;28;20196;-75
2021/04/12 06:09:46;;;;;;;13.17;6.70;;;;;;;;;;5022746;28;20308;-75
2021/04/12 06:12:21;;;;;;;11.53;5.90;;;;;;;;;;5020475;28;20207;-75
2021/04/12 06:15:00;;;;;;;11.13;6.10;;;;;;;;;;5021174;28;20313;-75
2021/04/12 06:17:46;;;;;;;15.93;6.67;;;;;;;;;;5023089;28;20628;-75
2021/04/12 06:20:31;;;;;;;12.93;6.33;;;;;;;;;;5022576;28;20287;-75
2021/04/12 06:23:09;;;;;;;14.50;6.23;;;;;;;;;;5020656;28;20207;-74
2021/04/12 06:25:53;;;;;;;10.80;6.07;;;;;;;;;;5019562;28;20231;-74
2021/04/12 06:28:28;;;;;;;10.00;6.10;;;;;;;;;;5017115;28;20283;-75
2021/04/12 06:31:10;;;;;;;12.57;6.37;;;;;;;;;;5018232;28;20233;-76
2021/04/12 06:33:47;;;;;;;10.80;5.83;;;;;;;;;;5016557;28;20298;-76
2021/04/12 06:36:33;;;;;;;12.50;5.73;;;;;;;;;;5020293;28;20298;-78
2021/04/12 06:39:09;;;;;;;11.77;5.70;;;;;;;;;;5019101;28;20729;-77
2021/04/12 06:42:06;;;;;;;12.33;6.37;;;;;;;;;;5017269;28;20290;-77
2021/04/12 06:44:52;;;;;;;12.33;6.07;;;;;;;;;;5020235;28;20228;-75
2021/04/12 06:47:31;;;;;;;12.30;6.83;;;;;;;;;;5016743;28;20905;-77
2021/04/12 06:50:17;;;;;;;13.20;6.67;;;;;;;;;;5015095;28;20199;-76
2021/04/12 06:53:13;;;;;;;12.53;6.30;;;;;;;;;;5017974;28;20202;-75
2021/04/12 06:56:08;;;;;;;12.00;6.10;;;;;;;;;;5016950;28;20318;-75
2021/04/12 06:59:03;;;;;;;14.67;6.57;;;;;;;;;;5015206;28;20370;-77
2021/04/12 07:01:47;;;;;;;15.13;6.60;;;;;;;;;;5017680;28;20235;-78
2021/04/12 07:04:32;;;;;;;12.07;6.93;;;;;;;;;;5016876;28;20259;-74
2021/04/12 07:07:18;;;;;;;15.13;7.20;;;;;;;;;;5014415;28;20289;-74
2021/04/12 07:09:52;;;;;;;11.83;7.40;;;;;;;;;;5018746;28;20212;-76
2021/04/12 07:12:38;;;;;;;17.90;7.63;;;;;;;;;;5015984;28;20303;-74
2021/04/12 07:15:23;;;;;;;21.37;8.40;;;;;;;;;;5018940;28;20369;-74
2021/04/12 07:18:26;;;;;;;15.73;7.83;;;;;;;;;;5021552;28;20298;-75
2021/04/12 07:21:02;;;;;;;14.90;7.50;;;;;;;;;;5013370;28;20227;-75
2021/04/12 07:23:46;;;;;;;13.93;6.93;;;;;;;;;;5019558;28;20203;-76
2021/04/12 07:26:37;;;;;;;12.37;7.50;;;;;;;;;;5018781;28;20304;-76
2021/04/12 07:29:22;;;;;;;15.57;8.77;;;;;;;;;;5001609;28;20200;-75
2021/04/12 07:32:08;;;;;;;14.60;8.00;;;;;;;;;;5024450;28;20204;-75
2021/04/12 07:34:49;;;;;;;12.50;7.57;;;;;;;;;;5022069;28;20234;-75
2021/04/12 07:37:24;;;;;;;16.73;8.03;;;;;;;;;;5018677;28;20322;-77
2021/04/12 07:40:08;;;;;;;14.73;7.40;;;;;;;;;;5020128;28;20203;-78
2021/04/12 07:43:13;;;;;;;16.13;8.03;;;;;;;;;;5019553;28;20242;-78
2021/04/12 07:46:02;;;;;;;14.53;7.67;;;;;;;;;;5016395;28;20223;-76
2021/04/12 07:48:51;;;;;;;15.63;7.77;;;;;;;;;;5018932;28;20265;-76
2021/04/12 07:51:33;;;;;;;15.33;7.63;;;;;;;;;;5018336;28;20282;-74
2021/04/12 07:54:19;;;;;;;11.97;6.90;;;;;;;;;;5018038;28;20226;-75
2021/04/12 07:57:03;;;;;;;10.40;6.53;;;;;;;;;;5017816;28;20800;-74
2021/04/12 07:59:53;;;;;;;16.13;6.73;;;;;;;;;;5016800;28;20209;-74
2021/04/12 08:02:44;;;;;;;14.63;6.93;;;;;;;;;;5018568;28;20737;-75
2021/04/12 08:05:30;;;;;;;7.40;4.50;;;;;;;;;;5015192;28;20311;-76
2021/04/12 08:08:46;;;;;;;11.80;6.07;;;6.60;99.90;;;;;;5014301;28;20300;-74
2021/04/12 08:11:24;;;;;;;10.47;6.67;;;;;;;;;;5017706;28;20717;-75
2021/04/12 08:14:09;;;;;;;15.13;6.53;;;;;;;;;;5019814;28;20294;-77
2021/04/12 08:16:56;;;;;;;11.63;4.63;;;;;;;;;;5026279;28;20234;-75
2021/04/12 08:19:42;;;;;;;9.70;4.33;;;;;;;;;;5015783;28;20292;-73
2021/04/12 08:22:24;;;;;;;7.93;4.47;;;;;;;;;;5014750;28;20871;-73
2021/04/12 08:25:11;;;;;;;10.73;5.13;;;;;;;;;;5014099;28;20247;-74
2021/04/12 08:27:57;;;;;;;9.07;5.17;;;;;;;;;;5009369;28;20642;-74
2021/04/12 08:30:43;;;;;;;8.70;5.07;;;;;;;;;;5010541;28;20207;-73
2021/04/12 08:33:33;;;;;;;10.93;5.50;;;;;;;;;;5011760;28;20365;-73
2021/04/12 08:36:21;;;;;;;11.70;6.30;;;;;;;;;;4995259;28;20261;-74
2021/04/12 08:38:58;;;;;;;10.97;5.23;;;;;;;;;;5005253;28;20288;-74
2021/04/12 08:41:39;;;;;;;67.77;32.13;;;;;;;;;;5037166;23;20666;-75
2021/04/12 08:44:14;;;;;;;8.60;5.20;;;;;;;;;;5029150;28;20318;-74
2021/04/12 08:46:56;;;;;;;13.70;6.73;;;;;;;;;;5032372;28;20298;-77
2021/04/12 08:49:53;;;;;;;10.97;6.33;;;;;;;;;;5031337;28;20752;-73
2021/04/12 08:52:33;;;;;;;11.07;4.57;;;;;;;;;;4985515;28;20207;-73
2021/04/12 08:55:08;;;;;;;11.20;5.20;;;;;;;;;;5033910;28;20357;-74
2021/04/12 08:57:53;;;;;;;9.23;5.20;;;;;;;;;;5032140;28;20635;-75
2021/04/12 09:00:42;;;;;;;11.23;4.97;;;;;;;;;;5008518;28;20626;-73
2021/04/12 09:03:40;;;;;;;8.73;4.50;;;;;;;;;;5028938;28;20299;-73
2021/04/12 09:06:25;;;;;;;9.67;4.93;;;;;;;;;;5030650;28;20196;-73
2021/04/12 09:09:02;;;;;;;9.53;5.20;;;;;;;;;;5028761;28;20206;-73
2021/04/12 09:11:47;;;;;;;10.83;3.27;;;;;;;;;;5030533;28;20630;-73
2021/04/12 09:14:31;;;;;;;7.30;3.57;;;;;;;;;;5028719;28;21300;-74
2021/04/12 09:17:16;;;;;;;6.60;3.33;;;;;;;;;;5031111;28;20269;-75
2021/04/12 09:20:09;;;;;;;4.83;2.27;;;;;;;;;;5030832;28;20365;-73
2021/04/12 09:22:53;;;;;;;8.53;2.53;;;;;;;;;;5030755;28;20282;-74
2021/04/12 09:25:40;;;;;;;7.40;2.90;;;;;;;;;;5031727;28;20227;-73
2021/04/12 09:28:21;;;;;;;3.67;2.40;;;;;;;;;;5030572;28;20210;-73
2021/04/12 09:31:01;;;;;;;7.33;2.73;;;;;;;;;;5036558;28;20210;-76
2021/04/12 09:33:46;;;;;;;4.50;2.20;;;;;;;;;;5033375;28;20227;-73
2021/04/12 09:36:21;;;;;;;5.00;2.30;;;;;;;;;;5032704;28;20289;-73
2021/04/12 09:39:12;;;;;;;5.63;2.53;;;;;;;;;;5030460;28;20227;-75
2021/04/12 09:41:50;;;;;;;6.80;2.30;;;;;;;;;;5020173;28;20242;-74
2021/04/12 09:44:40;;;;;;;2.93;1.80;;;;;;;;;;5029913;28;20238;-75
2021/04/12 09:47:25;;;;;;;4.87;2.40;;;;;;;;;;5044410;28;20192;-74
2021/04/12 09:50:15;;;;;;;4.87;2.50;;;;;;;;;;5036961;28;20311;-75
2021/04/12 09:52:46;;;;;;;6.57;3.03;;;;;;;;;;5010565;28;20785;-73
2021/04/12 09:55:34;;;;;;;5.10;2.37;;;;;;;;;;5029771;28;20330;-76
2021/04/12 09:58:12;;;;;;;6.27;2.77;;;;;;;;;;5023190;28;20754;-75
2021/04/12 10:00:56;;;;;;;4.70;2.60;;;;;;;;;;5028544;28;20297;-73
2021/04/12 10:03:36;;;;;;;7.20;2.60;;;;;;;;;;5030776;28;20697;-74
2021/04/12 10:06:33;;;;;;;5.27;2.30;;;;;;;;;;5034075;28;20638;-73
2021/04/12 10:09:24;;;;;;;4.87;1.90;;;;;;;;;;5035355;28;20195;-72
2021/04/12 10:11:53;;;;;;;5.00;2.03;;;;;;;;;;5010012;28;20203;-71
2021/04/12 10:14:21;;;;;;;3.77;2.10;;;;;;;;;;5033940;28;20223;-73
2021/04/12 10:16:52;;;;;;;3.27;1.90;;;;;;;;;;5029607;28;20199;-72
2021/04/12 10:19:20;;;;;;;3.80;1.60;;;;;;;;;;5034226;28;21394;-72
2021/04/12 10:21:51;;;;;;;6.37;2.30;;;;;;;;;;5036872;28;20206;-72
2021/04/12 10:24:22;;;;;;;8.00;2.00;;;;;;;;;;5037545;28;20226;-72
2021/04/12 10:26:50;;;;;;;4.40;2.37;;;;;;;;;;5031633;28;20207;-72
2021/04/12 10:29:20;;;;;;;4.23;1.97;;;;;;;;;;5030646;28;20295;-72
2021/04/12 10:31:53;;;;;;;4.97;2.10;;;;;;;;;;5032832;28;20641;-71
2021/04/12 10:34:28;;;;;;;3.80;2.10;;;;;;;;;;5032777;28;20626;-71
2021/04/12 10:37:08;;;;;;;3.30;2.00;;;;;;;;;;5036770;28;20254;-71
2021/04/12 10:39:39;;;;;;;5.43;2.00;;;;;;;;;;5031059;28;20199;-71
2021/04/12 10:42:29;;;;;;;5.20;2.30;;;;;;;;;;5032024;28;21223;-71
2021/04/12 10:45:01;;;;;;;5.83;2.53;;;;;;;;;;5030554;28;20338;-72
2021/04/12 10:47:29;;;;;;;6.30;2.70;;;;;;;;;;5032532;28;20214;-72
2021/04/12 10:50:01;;;;;;;5.33;2.73;;;;;;;;;;5032455;28;20267;-72
2021/04/12 10:52:31;;;;;;;4.50;2.50;;;;;;;;;;5033966;28;20298;-72
2021/04/12 10:55:05;;;;;;;4.23;1.60;;;;;;;;;;5048804;28;20219;-71
2021/04/12 10:57:43;;;;;;;2.20;1.60;;;;;;;;;;5053651;28;20223;-71
2021/04/12 11:00:34;;;;;;;4.27;1.80;;;;;;;;;;5033877;28;20295;-72
2021/04/12 11:03:21;;;;;;;2.97;1.63;;;;;;;;;;5016113;28;20294;-71
2021/04/12 11:06:04;;;;;;;2.97;1.50;;;;;;;;;;5033039;28;20314;-71
2021/04/12 11:08:35;;;;;;;2.37;1.60;;;;;;;;;;5031759;28;20655;-71
2021/04/12 11:11:09;;;;;;;2.63;1.37;;;;;;;;;;5029144;28;20294;-72
2021/04/12 11:13:37;;;;;;;1.60;1.30;;;;;;;;;;5031568;28;20209;-74
2021/04/12 11:16:15;;;;;;;1.50;1.10;;;;;;;;;;5028159;28;20208;-72
2021/04/12 11:18:44;;;;;;;2.83;1.27;;;;;;;;;;5033716;28;20660;-73
2021/04/12 11:21:20;;;;;;;2.57;1.30;;;;;;;;;;5029976;28;20378;-72
2021/04/12 11:23:54;;;;;;;1.90;1.53;;;;;;;;;;5031911;28;20663;-72
2021/04/12 11:26:24;;;;;;;2.00;1.40;;;;;;;;;;5031404;28;20563;-73
2021/04/12 11:28:54;;;;;;;2.77;1.73;;;;;;;;;;5027340;28;20295;-73
2021/04/12 11:31:25;;;;;;;7.20;2.40;;;;;;;;;;5032207;28;20406;-72
2021/04/12 11:33:57;;;;;;;7.23;2.40;;;;;;;;;;5032544;28;20295;-72
2021/04/12 11:36:42;;;;;;;5.70;2.20;;;;;;;;;;5031263;28;20282;-72
2021/04/12 11:39:11;;;;;;;4.03;2.17;;;;;;;;;;5029604;28;20203;-72
2021/04/12 11:41:47;;;;;;;4.90;2.07;;;;;;;;;;5032365;28;20696;-72
2021/04/12 11:44:16;;;;;;;4.53;2.43;;;;;;;;;;5028552;28;20325;-71
2021/04/12 11:46:52;;;;;;;6.17;3.17;;;;;;;;;;5035181;28;20287;-72
2021/04/12 11:49:21;;;;;;;5.17;2.70;;;;;;;;;;5035793;28;20787;-72
2021/04/12 11:51:56;;;;;;;7.27;2.97;;;;;;;;;;5035603;28;20293;-72
2021/04/12 11:54:27;;;;;;;3.13;2.30;;;;;;;;;;5036193;28;20696;-73
2021/04/12 11:56:59;;;;;;;5.67;2.93;;;;;;;;;;5035182;28;20290;-72
2021/04/12 11:59:39;;;;;;;4.23;2.47;;;;;;;;;;5036437;28;20239;-73
2021/04/12 12:02:11;;;;;;;4.23;3.20;;;;;;;;;;5036491;28;20231;-72
2021/04/12 12:04:42;;;;;;;4.27;2.87;;;;;;;;;;5040376;28;20320;-73
2021/04/12 12:07:16;;;;;;;3.40;2.70;;;;;;;;;;5039965;28;20223;-73
2021/04/12 12:09:44;;;;;;;3.97;2.90;;;;;;;;;;5037951;28;20319;-73
2021/04/12 12:12:19;;;;;;;3.87;2.37;;;;;;;;;;5035094;28;20246;-72
2021/04/12 12:14:51;;;;;;;6.20;3.83;;;;;;;;;;5034390;28;20219;-73
2021/04/12 12:17:20;;;;;;;4.90;2.17;;;;;;;;;;5035278;28;20321;-73
2021/04/12 12:19:53;;;;;;;4.27;2.80;;;;;;;;;;5035098;28;20406;-73
2021/04/12 12:22:25;;;;;;;5.57;3.53;;;;;;;;;;5033695;28;20563;-72
2021/04/12 12:24:59;;;;;;;5.13;3.50;;;;;;;;;;5033562;28;20334;-72
2021/04/12 12:27:29;;;;;;;7.47;3.60;;;;;;;;;;5037788;28;20285;-72
2021/04/12 12:30:00;;;;;;;7.57;4.67;;;;;;;;;;5037555;28;20218;-72
2021/04/12 12:32:42;;;;;;;6.00;4.00;;;;;;;;;;5037295;28;20475;-72
2021/04/12 12:35:13;;;;;;;17.63;4.90;;;;;;;;;;5034449;28;20258;-71
2021/04/12 12:37:52;;;;;;;7.33;4.20;;;;;;;;;;5036767;28;20310;-73
2021/04/12 12:40:20;;;;;;;9.17;4.03;;;;;;;;;;5033415;28;20234;-72
2021/04/12 12:42:48;;;;;;;6.73;3.80;;;;;;;;;;5034756;28;20237;-72
2021/04/12 12:45:17;;;;;;;6.87;3.80;;;;;;;;;;5033165;28;20218;-72
2021/04/12 12:47:46;;;;;;;6.30;4.23;;;;;;;;;;5031393;28;20266;-72
2021/04/12 12:50:14;;;;;;;5.63;4.23;;;;;;;;;;5033783;28;20299;-72
2021/04/12 12:52:47;;;;;;;6.93;4.07;;;;;;;;;;5031922;28;20311;-72
2021/04/12 12:55:17;;;;;;;10.90;4.13;;;;;;;;;;5035952;28;20535;-72
2021/04/12 12:57:44;;;;;;;5.70;3.93;;;;;;;;;;5032072;28;20306;-72
2021/04/12 13:00:17;;;;;;;6.37;3.93;;;;;;;;;;5036305;28;20230;-72
2021/04/12 13:02:44;;;;;;;7.83;5.90;;;;;;;;;;5032078;28;20217;-72
2021/04/12 13:05:17;;;;;;;8.47;4.07;;;;;;;;;;5033994;28;20255;-72
2021/04/12 13:07:44;;;;;;;6.43;3.80;;;;;;;;;;5030027;28;20241;-72
2021/04/12 13:10:16;;;;;;;5.43;3.63;;;;;;;;;;5032878;28;20226;-72
2021/04/12 13:12:48;;;;;;;4.60;3.50;;;;;;;;;;5040373;28;20673;-72
2021/04/12 13:15:19;;;;;;;5.63;3.80;;;;;;;;;;5048149;28;20813;-71
2021/04/12 13:17:46;;;;;;;6.23;3.87;;;;;;;;;;5034193;28;20218;-72
2021/04/12 13:20:15;;;;;;;5.67;4.00;;;;;;;;;;5033950;28;20276;-72
2021/04/12 13:22:43;;;;;;;3.13;2.60;;;;;;;;;;5036436;28;20287;-72
2021/04/12 13:25:27;;;;;;;3.93;2.30;;;;;;;;;;5033026;28;20251;-72
2021/04/12 13:27:56;;;;;;;4.63;3.03;;;;;;;;;;5035194;28;20725;-72
2021/04/12 13:30:25;;;;;;;3.40;2.17;;;;;;;;;;5033511;28;20298;-72
2021/04/12 13:32:56;;;;;;;4.70;2.73;;;;;;;;;;5034718;28;20207;-71
2021/04/12 13:35:23;;;;;;;3.33;1.83;;;;;;;;;;5033475;28;20239;-72
2021/04/12 13:37:59;;;;;;;3.23;1.70;;;;;;;;;;5028568;28;20258;-71
2021/04/12 13:40:28;;;;;;;4.70;2.33;;;;;;;;;;5031141;28;20226;-72
2021/04/12 13:42:57;;;;;;;6.03;1.80;;;;;;;;;;5031821;28;20200;-72
2021/04/12 13:45:28;;;;;;;2.87;1.97;;;;;;;;;;5031943;28;20306;-71
2021/04/12 13:47:57;;;;;;;3.67;1.90;;;;;;;;;;5030836;28;20649;-71
2021/04/12 13:50:25;;;;;;;2.67;1.60;;;;;;;;;;5035311;28;20290;-71
2021/04/12 13:52:55;;;;;;;3.33;1.83;;;;;;;;;;5033481;28;20238;-70
2021/04/12 13:55:26;;;;;;;2.13;1.70;;;;;;;;;;5031167;28;20281;-70
2021/04/12 13:57:55;;;;;;;2.57;1.53;;;;;;;;;;5033628;28;20315;-71
2021/04/12 14:00:26;;;;;;;3.60;1.60;;;;;;;;;;5036568;28;20646;-70
2021/04/12 14:02:55;;;;;;;1.80;1.60;;;;;;;;;;5038154;28;20258;-71
2021/04/12 14:05:23;;;;;;;2.10;1.60;;;;;;;;;;5038342;28;20656;-70
2021/04/12 14:07:54;;;;;;;3.20;1.23;;;;;;;;;;5036785;28;20266;-71
2021/04/12 14:10:24;;;;;;;2.17;1.40;;;;;;;;;;5039516;28;20688;-71
2021/04/12 14:12:57;;;;;;;1.97;1.27;;;;;;;;;;5038915;28;20282;-71
2021/04/12 14:15:27;;;;;;;2.80;1.57;;;;;;;;;;5036259;28;20242;-71
2021/04/12 14:17:58;;;;;;;2.00;1.43;;;;;;;;;;5038236;28;20222;-72
2021/04/12 14:20:29;;;;;;;3.70;1.50;;;;;;;;;;5035983;28;20203;-71
2021/04/12 14:22:56;;;;;;;2.50;1.40;;;;;;;;;;5042493;28;20631;-71
2021/04/12 14:25:27;;;;;;;1.40;0.80;;;;;;;;;;5047073;28;20720;-71
2021/04/12 14:28:03;;;;;;;2.20;1.30;;;;;;;;;;5037060;28;20260;-71
2021/04/12 14:30:32;;;;;;;1.50;1.00;;;;;;;;;;5036276;28;20294;-71
2021/04/12 14:33:00;;;;;;;1.37;1.10;;;;;;;;;;5036891;28;20204;-70
2021/04/12 14:35:29;;;;;;;4.40;1.10;;;;;;;;;;5035894;28;20315;-70
2021/04/12 14:38:05;;;;;;;1.53;1.30;;;;;;;;;;5035173;28;20219;-71
2021/04/12 14:40:32;;;;;;;2.93;1.10;;;;;;;;;;5035653;28;20303;-73
2021/04/12 14:42:59;;;;;;;3.30;1.40;;;;;;;;;;5037568;28;20293;-73
2021/04/12 14:45:28;;;;;;;1.83;1.20;;;;;;;;;;5037866;28;20315;-72
2021/04/12 14:48:01;;;;;;;1.90;1.40;;;;;;;;;;5033401;28;20800;-73
2021/04/12 14:50:29;;;;;;;2.10;1.20;;;;;;;;;;5033087;28;20285;-73
2021/04/12 14:53:00;;;;;;;3.43;1.60;;;;;;;;;;5031370;28;20307;-73
2021/04/12 14:55:29;;;;;;;3.27;1.20;;;;;;;;;;5032007;28;20760;-72
2021/04/12 14:58:07;;;;;;;2.17;1.50;;;;;;;;;;5032777;28;20572;-73
2021/04/12 15:00:35;;;;;;;2.03;1.60;;;;;;;;;;5033954;28;20688;-73
2021/04/12 15:03:06;;;;;;;2.73;1.70;;;;;;;;;;5035686;28;20210;-73
2021/04/12 15:05:37;;;;;;;3.43;2.07;;;;;;;;;;5035288;28;20310;-72
2021/04/12 15:08:09;;;;;;;1.97;1.60;;;;;;;;;;5041579;28;20230;-72
2021/04/12 15:10:38;;;;;;;2.50;1.80;;;;;;;;;;5037834;28;20299;-74
2021/04/12 15:13:06;;;;;;;2.90;2.20;;;;;;;;;;5034597;28;20231;-73
2021/04/12 15:21:45;;;;;;;5.37;2.77;;;;;;;;;;5037438;28;20695;-76
2021/04/12 15:24:14;;;;;;;2.40;1.70;;;;;;;;;;5039624;28;20780;-73
2021/04/12 15:26:46;;;;;;;4.27;1.53;;;;;;;;;;5037374;28;21519;-74
2021/04/12 15:29:21;;;;;;;2.97;1.53;;;;;;;;;;5042283;28;20279;-74
2021/04/12 15:31:49;;;;;;;2.30;1.57;;;;;;;;;;5047216;28;20198;-74
2021/04/12 15:34:31;;;;;;;3.03;1.47;;;;;;;;;;5046781;28;20249;-74
2021/04/12 15:36:59;;;;;;;2.30;1.60;;;;;;;;;;5042869;28;20215;-72
2021/04/12 15:39:27;;;;;;;2.93;1.60;;;;;;;;;;5038199;28;20227;-72
2021/04/12 15:41:54;;;;;;;3.53;1.90;;;;;;;;;;5037757;28;20696;-72
2021/04/12 15:44:24;;;;;;;3.60;1.97;;;;;;;;;;5040665;28;20639;-72
2021/04/12 15:46:52;;;;;;;3.50;1.73;;;;;;;;;;5039327;28;20293;-75
2021/04/12 15:49:22;;;;;;;2.57;1.70;;;;;;;;;;5036501;28;20300;-73